createdAt,value
2023-02-11T00:00:51.586Z,-1.00
2023-02-11T00:03:21.829Z,-1.00
2023-02-11T00:06:00.738Z,-0.90
2023-02-11T00:08:30.857Z,-0.80
2023-02-11T00:11:03.399Z,-0.70
2023-02-11T00:13:33.362Z,-0.40
2023-02-11T00:16:03.310Z,-0.40
2023-02-11T00:18:33.727Z,-0.30
2023-02-11T00:21:03.643Z,-0.40
2023-02-11T00:23:34.274Z,-0.40
2023-02-11T00:26:07.562Z,-0.30
2023-02-11T00:28:37.519Z,-0.10
2023-02-11T00:31:08.295Z,0.10
2023-02-11T00:33:40.406Z,0.00
2023-02-11T00:36:13.756Z,-0.10
2023-02-11T00:38:43.704Z,-0.20
2023-02-11T00:41:17.164Z,-0.10
2023-02-11T00:43:47.320Z,-0.10
2023-02-11T00:46:17.366Z,0.10
2023-02-11T00:48:47.943Z,0.20
2023-02-11T00:51:18.074Z,0.20
2023-02-11T00:53:48.010Z,0.20
2023-02-11T00:56:20.573Z,0.20
2023-02-11T00:58:50.538Z,0.20
2023-02-11T01:01:20.797Z,0.30
2023-02-11T01:03:50.783Z,0.30
2023-02-11T01:06:20.892Z,0.60
2023-02-11T01:08:50.866Z,0.60
2023-02-11T01:11:24.679Z,0.70
2023-02-11T01:13:54.692Z,0.70
2023-02-11T01:16:25.901Z,0.80
2023-02-11T01:18:56.538Z,0.80
2023-02-11T01:21:26.989Z,0.80
2023-02-11T01:23:56.983Z,0.80
2023-02-11T01:26:29.575Z,0.80
2023-02-11T01:29:02.095Z,0.90
2023-02-11T01:31:34.046Z,0.90
2023-02-11T01:34:04.310Z,0.80
2023-02-11T01:36:34.240Z,0.90
2023-02-11T01:39:04.264Z,0.80
2023-02-11T01:41:36.933Z,0.70
2023-02-11T01:44:25.977Z,0.70
2023-02-11T01:46:56.409Z,0.70
2023-02-11T01:49:29.706Z,0.60
2023-02-11T01:52:02.648Z,0.70
2023-02-11T01:54:48.489Z,0.70
2023-02-11T01:57:25.756Z,0.70
2023-02-11T02:00:02.959Z,0.70
2023-02-11T02:02:48.627Z,0.60
2023-02-11T02:05:24.935Z,0.60
2023-02-11T02:08:00.133Z,0.60
2023-02-11T02:10:31.376Z,0.60
2023-02-11T02:13:04.222Z,0.50
2023-02-11T02:15:36.309Z,0.50
2023-02-11T02:18:18.615Z,0.40
2023-02-11T02:21:27.113Z,0.50
2023-02-11T02:24:27.254Z,0.50
2023-02-11T02:27:26.260Z,0.50
2023-02-11T02:30:27.626Z,0.50
2023-02-11T02:33:21.823Z,0.50
2023-02-11T02:35:58.547Z,0.50
2023-02-11T02:38:31.678Z,0.50
2023-02-11T02:41:06.068Z,0.40
2023-02-11T02:43:36.968Z,0.50
2023-02-11T02:46:14.856Z,0.50
2023-02-11T02:48:49.947Z,0.40
2023-02-11T02:51:38.555Z,0.30
2023-02-11T02:54:36.021Z,0.30
2023-02-11T02:57:19.892Z,0.20
2023-02-11T02:59:58.950Z,0.20
2023-02-11T03:02:33.215Z,0.20
2023-02-11T03:05:09.638Z,0.20
2023-02-11T03:07:44.617Z,0.20
2023-02-11T03:10:17.258Z,0.20
2023-02-11T03:12:48.196Z,0.40
2023-02-11T03:15:19.630Z,0.50
2023-02-11T03:17:51.774Z,0.40
2023-02-11T03:20:26.132Z,0.40
2023-02-11T03:22:59.161Z,0.40
2023-02-11T03:25:33.208Z,0.50
2023-02-11T03:28:06.800Z,0.50
2023-02-11T03:30:41.634Z,0.40
2023-02-11T03:33:17.144Z,0.40
2023-02-11T03:35:54.274Z,0.50
2023-02-11T03:38:25.542Z,0.60
2023-02-11T03:40:57.571Z,0.70
2023-02-11T03:43:31.015Z,0.70
2023-02-11T03:46:01.721Z,0.70
2023-02-11T03:48:34.798Z,0.70
2023-02-11T03:51:10.645Z,0.90
2023-02-11T03:53:42.102Z,0.90
2023-02-11T03:56:15.066Z,0.80
2023-02-11T03:58:47.309Z,1.00
2023-02-11T04:01:17.484Z,1.00
2023-02-11T04:03:47.508Z,0.90
2023-02-11T04:06:20.110Z,0.80
2023-02-11T04:08:50.077Z,0.80
2023-02-11T04:11:20.047Z,0.90
2023-02-11T04:13:50.056Z,0.80
2023-02-11T04:16:20.020Z,0.70
2023-02-11T04:18:49.957Z,0.90
2023-02-11T04:21:22.540Z,0.90
2023-02-11T04:23:52.532Z,0.80
2023-02-11T04:26:22.476Z,0.80
2023-02-11T04:28:52.516Z,0.80
2023-02-11T04:31:22.598Z,0.70
2023-02-11T04:33:52.665Z,0.90
2023-02-11T04:36:25.236Z,1.00
2023-02-11T04:38:55.202Z,1.00
2023-02-11T04:41:25.148Z,1.10
2023-02-11T04:43:55.104Z,1.10
2023-02-11T04:46:25.253Z,1.10
2023-02-11T04:48:55.237Z,1.10
2023-02-11T04:51:27.794Z,1.00
2023-02-11T04:53:57.768Z,1.10
2023-02-11T04:56:27.689Z,1.10
2023-02-11T04:58:57.625Z,1.20
2023-02-11T05:01:27.618Z,1.10
2023-02-11T05:03:57.639Z,1.00
2023-02-11T05:06:30.224Z,1.00
2023-02-11T05:09:00.224Z,0.90
2023-02-11T05:11:30.155Z,0.90
2023-02-11T05:14:00.131Z,0.90
2023-02-11T05:16:31.000Z,0.80
2023-02-11T05:19:00.981Z,0.80
2023-02-11T05:21:33.567Z,0.90
2023-02-11T05:24:03.596Z,0.80
2023-02-11T05:26:33.568Z,0.90
2023-02-11T05:29:03.514Z,0.90
2023-02-11T05:31:33.475Z,0.80
2023-02-11T05:34:04.186Z,0.80
2023-02-11T05:36:36.778Z,0.80
2023-02-11T05:39:06.750Z,0.90
2023-02-11T05:41:36.698Z,0.90
2023-02-11T05:44:06.822Z,1.00
2023-02-11T05:46:36.818Z,1.10
2023-02-11T05:49:07.038Z,1.10
2023-02-11T05:51:39.604Z,1.10
2023-02-11T05:54:09.687Z,1.10
2023-02-11T05:56:39.623Z,1.20
2023-02-11T05:59:09.551Z,1.20
2023-02-11T06:01:39.557Z,1.20
2023-02-11T06:04:09.582Z,1.10
2023-02-11T06:06:42.230Z,1.20
2023-02-11T06:09:13.039Z,1.10
2023-02-11T06:11:43.006Z,1.00
2023-02-11T06:14:13.014Z,1.10
2023-02-11T06:16:42.958Z,1.10
2023-02-11T06:19:12.955Z,1.10
2023-02-11T06:21:45.496Z,1.20
2023-02-11T06:24:19.281Z,1.30
2023-02-11T06:26:54.554Z,1.30
2023-02-11T06:29:24.500Z,1.40
2023-02-11T06:31:54.627Z,1.40
2023-02-11T06:34:24.629Z,1.40
2023-02-11T06:36:57.163Z,1.40
2023-02-11T06:39:27.080Z,1.40
2023-02-11T06:41:57.084Z,1.40
2023-02-11T06:44:27.138Z,1.40
2023-02-11T06:46:57.089Z,1.50
2023-02-11T06:49:27.028Z,1.40
2023-02-11T06:51:59.776Z,1.50
2023-02-11T06:54:29.756Z,1.40
2023-02-11T06:56:59.745Z,1.40
2023-02-11T06:59:29.696Z,1.40
2023-02-11T07:01:59.702Z,1.30
2023-02-11T07:04:29.673Z,1.30
2023-02-11T07:07:02.212Z,1.30
2023-02-11T07:09:32.247Z,1.30
2023-02-11T07:12:02.248Z,1.40
2023-02-11T07:14:32.323Z,1.50
2023-02-11T07:17:04.146Z,1.40
2023-02-11T07:19:34.237Z,1.40
2023-02-11T07:22:06.823Z,1.40
2023-02-11T07:24:36.780Z,1.40
2023-02-11T07:27:06.790Z,1.40
2023-02-11T07:29:36.764Z,1.40
2023-02-11T07:32:06.876Z,1.40
2023-02-11T07:34:37.013Z,1.50
2023-02-11T07:37:09.594Z,1.60
2023-02-11T07:39:39.562Z,1.60
2023-02-11T07:42:09.663Z,1.70
2023-02-11T07:44:39.850Z,1.80
2023-02-11T07:47:09.772Z,1.70
2023-02-11T07:49:39.725Z,1.70
2023-02-11T07:52:12.287Z,1.70
2023-02-11T07:54:42.238Z,1.70
2023-02-11T07:57:12.209Z,1.90
2023-02-11T07:59:42.238Z,2.00
2023-02-11T08:02:12.882Z,2.00
2023-02-11T08:04:43.089Z,2.10
2023-02-11T08:07:18.423Z,2.10
2023-02-11T08:09:49.113Z,2.10
2023-02-11T08:12:19.133Z,2.20
2023-02-11T08:14:49.142Z,2.10
2023-02-11T08:17:19.066Z,2.10
2023-02-11T08:19:48.993Z,2.10
2023-02-11T08:22:21.573Z,2.30
2023-02-11T08:24:52.520Z,2.30
2023-02-11T08:27:22.484Z,2.40
2023-02-11T08:29:52.734Z,2.40
2023-02-11T08:32:25.570Z,2.40
2023-02-11T08:34:55.644Z,2.50
2023-02-11T08:37:28.194Z,2.60
2023-02-11T08:39:58.139Z,2.60
2023-02-11T08:42:28.118Z,2.50
2023-02-11T08:44:58.147Z,2.60
2023-02-11T08:47:28.107Z,2.50
2023-02-11T08:49:58.063Z,2.60
2023-02-11T08:52:30.679Z,2.60
2023-02-11T08:55:00.890Z,2.60
2023-02-11T08:57:31.105Z,2.60
2023-02-11T09:00:01.093Z,2.80
2023-02-11T09:02:31.011Z,3.00
2023-02-11T09:05:01.078Z,3.10
2023-02-11T09:07:33.984Z,2.90
2023-02-11T09:10:03.923Z,3.00
2023-02-11T09:12:33.912Z,2.90
2023-02-11T09:15:03.904Z,2.90
2023-02-11T09:17:33.895Z,2.90
2023-02-11T09:20:04.160Z,2.90
2023-02-11T09:22:36.745Z,2.90
2023-02-11T09:25:06.887Z,2.90
2023-02-11T09:27:36.896Z,2.90
2023-02-11T09:30:07.841Z,3.00
2023-02-11T09:32:37.821Z,3.10
2023-02-11T09:35:08.425Z,3.20
2023-02-11T09:37:41.017Z,3.20
2023-02-11T09:40:12.523Z,3.40
2023-02-11T09:42:47.765Z,3.40
2023-02-11T09:45:21.635Z,3.40
2023-02-11T09:47:54.372Z,3.50
2023-02-11T09:50:27.302Z,3.70
2023-02-11T09:53:02.582Z,3.90
2023-02-11T09:55:37.602Z,4.00
2023-02-11T09:58:14.436Z,4.00
2023-02-11T10:00:48.629Z,4.00
2023-02-11T10:03:49.895Z,3.80
2023-02-11T10:06:36.051Z,3.70
2023-02-11T10:09:18.564Z,3.80
2023-02-11T10:11:55.593Z,4.00
2023-02-11T10:14:35.806Z,4.00
2023-02-11T10:17:13.089Z,4.30
2023-02-11T10:19:53.254Z,4.30
2023-02-11T10:22:26.136Z,4.30
2023-02-11T10:25:00.640Z,240.60
2023-02-11T10:27:33.924Z,240.60
2023-02-11T10:30:05.898Z,240.60
2023-02-11T10:32:41.480Z,240.60
2023-02-11T10:35:18.154Z,240.60
2023-02-11T10:37:48.379Z,240.60
2023-02-11T10:40:23.086Z,240.60
2023-02-11T10:42:55.749Z,240.60
2023-02-11T10:45:30.340Z,240.60
2023-02-11T10:48:00.336Z,240.60
2023-02-11T10:50:33.510Z,240.60
2023-02-11T10:53:16.471Z,240.60
2023-02-11T10:55:57.310Z,240.60
2023-02-11T10:58:29.031Z,240.60
2023-02-11T11:01:00.342Z,240.60
2023-02-11T11:03:32.625Z,240.60
2023-02-11T11:06:04.388Z,240.60
2023-02-11T11:08:43.416Z,240.60
2023-02-11T11:11:17.061Z,240.60
2023-02-11T11:13:59.200Z,240.60
2023-02-11T11:16:30.813Z,240.60
2023-02-11T11:19:22.399Z,240.60
2023-02-11T11:21:53.482Z,3.80
2023-02-11T11:24:27.644Z,3.90
2023-02-11T11:27:03.584Z,4.00
2023-02-11T11:29:38.498Z,240.60
2023-02-11T11:32:15.340Z,4.40
2023-02-11T11:34:47.287Z,4.40
2023-02-11T11:37:23.407Z,4.30
2023-02-11T11:40:00.210Z,4.40
2023-02-11T11:42:34.483Z,4.40
2023-02-11T11:45:06.336Z,4.70
2023-02-11T11:47:39.422Z,4.80
2023-02-11T11:50:21.356Z,4.70
2023-02-11T11:52:56.951Z,4.40
2023-02-11T11:55:29.489Z,4.10
2023-02-11T11:58:02.277Z,4.00
2023-02-11T12:00:38.677Z,4.00
2023-02-11T12:03:28.474Z,3.90
2023-02-11T12:06:10.087Z,3.70
2023-02-11T12:08:47.417Z,3.80
2023-02-11T12:11:22.683Z,3.70
2023-02-11T12:14:03.963Z,3.70
2023-02-11T12:16:40.853Z,3.70
2023-02-11T12:19:26.897Z,3.80
2023-02-11T12:22:04.337Z,3.90
2023-02-11T12:24:48.261Z,3.90
2023-02-11T12:27:21.679Z,3.90
2023-02-11T12:30:05.178Z,4.00
2023-02-11T12:32:41.491Z,4.00
2023-02-11T12:35:24.493Z,4.00
2023-02-11T12:38:16.205Z,4.10
2023-02-11T12:40:49.028Z,4.10
2023-02-11T12:43:21.806Z,4.00
2023-02-11T12:46:24.573Z,4.00
2023-02-11T12:49:28.804Z,4.00
2023-02-11T12:52:09.938Z,4.10
2023-02-11T12:54:42.778Z,4.20
2023-02-11T12:57:20.694Z,4.30
2023-02-11T12:59:57.435Z,4.30
2023-02-11T13:02:34.831Z,4.20
2023-02-11T13:05:14.486Z,4.30
2023-02-11T13:07:48.476Z,4.30
2023-02-11T13:10:29.266Z,4.30
2023-02-11T13:13:12.780Z,4.30
2023-02-11T13:15:43.521Z,4.20
2023-02-11T13:18:25.188Z,4.40
2023-02-11T13:21:01.266Z,4.40
2023-02-11T13:23:44.131Z,4.50
2023-02-11T13:26:18.553Z,4.30
2023-02-11T13:28:51.763Z,4.30
2023-02-11T13:31:26.971Z,4.20
2023-02-11T13:33:57.100Z,4.20
2023-02-11T13:36:33.002Z,4.20
2023-02-11T13:39:05.325Z,4.20
2023-02-11T13:41:40.529Z,4.20
2023-02-11T13:44:28.253Z,4.20
2023-02-11T13:47:01.719Z,4.20
2023-02-11T13:49:40.929Z,4.20
2023-02-11T13:52:26.378Z,4.10
2023-02-11T13:54:59.488Z,4.10
2023-02-11T13:57:40.715Z,4.00
2023-02-11T14:00:47.501Z,4.10
2023-02-11T14:03:42.176Z,4.10
2023-02-11T14:06:30.212Z,4.10
2023-02-11T14:09:14.369Z,4.10
2023-02-11T14:11:50.497Z,4.00
2023-02-11T14:14:24.410Z,4.00
2023-02-11T14:17:31.635Z,3.90
2023-02-11T14:20:02.363Z,3.90
2023-02-11T14:22:34.600Z,3.90
2023-02-11T14:25:08.490Z,3.90
2023-02-11T14:27:42.520Z,3.90
2023-02-11T14:30:57.039Z,3.90
2023-02-11T14:33:58.023Z,3.90
2023-02-11T14:37:00.517Z,3.80
2023-02-11T14:39:44.045Z,3.90
2023-02-11T14:42:22.669Z,3.80
2023-02-11T14:44:53.535Z,3.90
2023-02-11T14:47:27.093Z,3.90
2023-02-11T14:49:57.246Z,4.00
2023-02-11T14:52:31.292Z,4.00
2023-02-11T14:55:17.712Z,4.00
2023-02-11T14:57:56.071Z,4.00
2023-02-11T15:00:26.458Z,3.90
2023-02-11T15:02:57.437Z,3.90
2023-02-11T15:05:29.092Z,3.90
2023-02-11T15:08:01.532Z,3.80
2023-02-11T15:10:34.263Z,3.80
2023-02-11T15:13:08.011Z,3.80
2023-02-11T15:15:38.338Z,3.80
2023-02-11T15:18:09.866Z,3.80
2023-02-11T15:20:39.856Z,3.80
2023-02-11T15:23:11.998Z,3.80
2023-02-11T15:25:51.672Z,3.80
2023-02-11T15:28:29.026Z,3.70
2023-02-11T15:31:07.104Z,3.70
2023-02-11T15:33:37.332Z,3.70
2023-02-11T15:36:08.543Z,3.60
2023-02-11T15:38:38.566Z,3.70
2023-02-11T15:41:09.514Z,3.70
2023-02-11T15:43:50.859Z,3.70
2023-02-11T15:46:22.813Z,3.70
2023-02-11T15:48:55.004Z,3.70
2023-02-11T15:51:28.796Z,3.80
2023-02-11T15:53:59.952Z,3.80
2023-02-11T15:56:34.503Z,3.80
2023-02-11T15:59:22.687Z,3.80
2023-02-11T16:01:52.987Z,3.80
2023-02-11T16:04:25.873Z,4.00
2023-02-11T16:06:56.779Z,4.00
2023-02-11T16:09:30.396Z,4.00
2023-02-11T16:12:03.187Z,4.10
2023-02-11T16:14:40.045Z,4.10
2023-02-11T16:17:12.024Z,4.00
2023-02-11T16:19:47.582Z,4.10
2023-02-11T16:22:20.196Z,4.10
2023-02-11T16:24:51.154Z,4.10
2023-02-11T16:27:24.782Z,4.10
2023-02-11T16:29:57.497Z,4.20
2023-02-11T16:32:29.116Z,4.10
2023-02-11T16:35:01.059Z,4.00
2023-02-11T16:37:31.892Z,3.90
2023-02-11T16:40:01.911Z,3.80
2023-02-11T16:42:32.119Z,3.70
2023-02-11T16:45:04.750Z,3.70
2023-02-11T16:47:35.202Z,4.00
2023-02-11T16:50:05.893Z,4.00
2023-02-11T16:52:36.205Z,4.00
2023-02-11T16:55:06.803Z,4.20
2023-02-11T16:57:36.735Z,4.10
2023-02-11T17:00:11.286Z,4.00
2023-02-11T17:02:41.406Z,3.90
2023-02-11T17:05:19.413Z,3.90
2023-02-11T17:07:49.409Z,4.00
2023-02-11T17:10:21.235Z,4.00
2023-02-11T17:12:52.810Z,4.10
2023-02-11T17:15:25.386Z,4.10
2023-02-11T17:17:55.260Z,4.10
2023-02-11T17:20:25.690Z,4.00
2023-02-11T17:22:55.863Z,4.00
2023-02-11T17:25:26.330Z,4.10
2023-02-11T17:27:56.704Z,4.10
2023-02-11T17:30:29.551Z,4.10
2023-02-11T17:32:59.468Z,4.10
2023-02-11T17:35:30.351Z,4.00
2023-02-11T17:38:01.684Z,4.20
2023-02-11T17:40:32.361Z,3.90
2023-02-11T17:43:02.534Z,3.90
2023-02-11T17:45:35.331Z,3.90
2023-02-11T17:48:05.529Z,4.00
2023-02-11T17:50:38.937Z,4.10
2023-02-11T17:53:08.886Z,4.20
2023-02-11T17:55:40.781Z,4.20
2023-02-11T17:58:10.934Z,4.10
2023-02-11T18:00:43.550Z,4.10
2023-02-11T18:03:13.680Z,4.00
2023-02-11T18:05:43.836Z,4.10
2023-02-11T18:08:13.989Z,4.00
2023-02-11T18:10:45.128Z,3.90
2023-02-11T18:13:15.127Z,3.90
2023-02-11T18:15:47.867Z,4.00
2023-02-11T18:18:18.191Z,4.00
2023-02-11T18:20:48.289Z,4.00
2023-02-11T18:23:18.449Z,4.00
2023-02-11T18:25:48.436Z,4.00
2023-02-11T18:28:18.488Z,4.10
2023-02-11T18:30:51.416Z,4.20
2023-02-11T18:33:21.577Z,4.30
2023-02-11T18:35:52.026Z,4.40
2023-02-11T18:38:22.410Z,4.50
2023-02-11T18:40:52.942Z,4.40
2023-02-11T18:43:23.471Z,4.30
2023-02-11T18:45:56.138Z,4.30
2023-02-11T18:48:27.137Z,4.30
2023-02-11T18:50:57.951Z,4.40
2023-02-11T18:53:28.035Z,4.50
2023-02-11T18:55:57.956Z,4.60
2023-02-11T18:58:28.026Z,4.50
2023-02-11T19:01:00.622Z,4.40
2023-02-11T19:03:30.626Z,4.30
2023-02-11T19:06:00.752Z,4.20
2023-02-11T19:08:31.044Z,4.20
2023-02-11T19:11:01.175Z,4.10
2023-02-11T19:13:32.291Z,3.90
2023-02-11T19:16:11.167Z,3.90
2023-02-11T19:18:41.679Z,3.80
2023-02-11T19:21:12.670Z,3.70
2023-02-11T19:23:42.847Z,3.70
2023-02-11T19:26:12.817Z,3.60
2023-02-11T19:28:42.949Z,3.60
2023-02-11T19:31:15.799Z,3.60
2023-02-11T19:33:45.800Z,3.60
2023-02-11T19:36:17.285Z,3.60
2023-02-11T19:38:47.939Z,3.60
2023-02-11T19:41:22.341Z,3.60
2023-02-11T19:43:53.541Z,3.80
2023-02-11T19:46:26.844Z,3.80
2023-02-11T19:48:57.541Z,3.70
2023-02-11T19:51:27.654Z,3.80
2023-02-11T19:53:58.348Z,3.70
2023-02-11T19:56:28.869Z,3.70
2023-02-11T19:58:59.325Z,3.70
2023-02-11T20:01:32.173Z,3.70
2023-02-11T20:04:02.170Z,3.70
2023-02-11T20:06:33.682Z,3.70
2023-02-11T20:09:05.597Z,3.70
2023-02-11T20:11:36.134Z,3.70
2023-02-11T20:14:06.847Z,3.70
2023-02-11T20:16:48.015Z,3.80
2023-02-11T20:19:20.652Z,3.80
2023-02-11T20:21:52.221Z,3.80
2023-02-11T20:24:23.032Z,3.80
2023-02-11T20:26:55.897Z,3.70
2023-02-11T20:29:26.600Z,3.70
2023-02-11T20:31:59.313Z,3.70
2023-02-11T20:34:29.619Z,3.70
2023-02-11T20:36:59.731Z,3.70
2023-02-11T20:39:29.754Z,3.80
2023-02-11T20:41:59.724Z,3.70
2023-02-11T20:44:30.031Z,3.60
2023-02-11T20:47:02.604Z,3.80
2023-02-11T20:49:32.955Z,3.80
2023-02-11T20:52:02.993Z,3.80
2023-02-11T20:54:32.988Z,3.80
2023-02-11T20:57:03.105Z,3.90
2023-02-11T20:59:33.622Z,3.90
2023-02-11T21:02:06.368Z,3.80
2023-02-11T21:04:36.419Z,3.80
2023-02-11T21:07:06.373Z,3.90
2023-02-11T21:09:37.043Z,3.90
2023-02-11T21:12:08.339Z,4.00
2023-02-11T21:14:38.386Z,4.00
2023-02-11T21:17:13.115Z,4.00
2023-02-11T21:19:43.753Z,4.00
2023-02-11T21:22:13.794Z,4.10
2023-02-11T21:24:43.825Z,4.00
2023-02-11T21:27:13.762Z,4.00
2023-02-11T21:29:53.788Z,4.00
2023-02-11T21:32:27.308Z,4.00
2023-02-11T21:34:57.325Z,4.00
2023-02-11T21:37:27.545Z,3.90
2023-02-11T21:39:57.487Z,3.90
2023-02-11T21:42:27.517Z,3.90
2023-02-11T21:44:57.437Z,3.90
2023-02-11T21:47:29.996Z,3.80
2023-02-11T21:49:59.894Z,3.90
2023-02-11T21:52:29.831Z,3.90
2023-02-11T21:54:59.754Z,3.90
2023-02-11T21:57:29.764Z,3.90
2023-02-11T21:59:59.705Z,3.80
2023-02-11T22:02:32.254Z,3.80
2023-02-11T22:05:02.435Z,3.80
2023-02-11T22:07:32.455Z,3.70
2023-02-11T22:10:02.427Z,3.80
2023-02-11T22:12:32.441Z,3.80
2023-02-11T22:15:02.477Z,3.80
2023-02-11T22:17:36.096Z,3.80
2023-02-11T22:20:06.767Z,3.80
2023-02-11T22:22:36.734Z,3.80
2023-02-11T22:25:06.871Z,3.70
2023-02-11T22:27:36.812Z,3.80
2023-02-11T22:30:07.685Z,3.90
2023-02-11T22:32:40.216Z,3.90
2023-02-11T22:35:10.485Z,3.80
2023-02-11T22:37:40.478Z,3.70
2023-02-11T22:40:11.770Z,3.70
2023-02-11T22:42:41.689Z,3.70
2023-02-11T22:45:12.486Z,3.70
2023-02-11T22:47:45.079Z,3.70
2023-02-11T22:50:15.227Z,3.80
2023-02-11T22:52:45.185Z,3.80
2023-02-11T22:55:15.466Z,3.80
2023-02-11T22:57:45.527Z,3.80
2023-02-11T23:00:17.216Z,3.80
2023-02-11T23:02:50.787Z,3.80
2023-02-11T23:05:20.721Z,3.80
2023-02-11T23:07:50.653Z,3.80
2023-02-11T23:10:20.958Z,3.80
2023-02-11T23:12:50.885Z,3.90
2023-02-11T23:15:21.105Z,3.90
2023-02-11T23:17:53.690Z,3.80
2023-02-11T23:20:23.670Z,3.80
2023-02-11T23:22:53.659Z,3.80
2023-02-11T23:25:23.576Z,3.90
2023-02-11T23:27:53.619Z,3.80
2023-02-11T23:30:24.464Z,3.70
2023-02-11T23:32:57.386Z,3.80
2023-02-11T23:35:27.361Z,3.80
2023-02-11T23:37:57.491Z,3.90
2023-02-11T23:40:27.425Z,3.90
2023-02-11T23:42:57.359Z,3.80
2023-02-11T23:45:27.329Z,3.80
2023-02-11T23:47:59.919Z,3.80
2023-02-11T23:50:30.422Z,3.70
2023-02-11T23:53:00.377Z,3.80
2023-02-11T23:55:30.522Z,3.80
2023-02-11T23:58:00.472Z,3.80
